Vologda, Russia
Current Conditions -  °F | °C
As of 5:00 PM on Wednesday 22 Oct 2014 (Local Time) from ULWC Reporting Station
Few Clouds Few Clouds  
Wind Chill:   Ceiling: Unl
Heat Index: 16°   Visibility: 6mi
Dew Point:   Wind: 9mph
Humidity: 58%   Direction: 330°NNW
Pressure: 30.06"   Gusts: 16mph
Location:  59.22°N, 39.9°E
Report Text: ULWC 221400Z 33004G07MPS 9999 FEW033 M09/M16 Q1018 NOSIG RMKQFE753/1005 SC040
Loading
Personal Weather Stations






























Interactive Weather Map
Tropical Storm Tracking
New forecast layout! Learn more

10-Day Weather Forecast

Advertisements
Track Severe Weather on mobile